Time;durP1;ratioP1;P1;durP2;ratioP2;P2;SDS_P1;SDS_P2;PMS_P1;PMS_P2;Temp;Humidity;BMP_temperature;BMP_pressure;BME280_temperature;BME280_humidity;BME280_pressure;Samples;Min_cycle;Max_cycle;Signal;HPM_P1;HPM_P2
2022/11/05 00:11:03;;;;;;;15.90;4.32;;;9.20;99.90;;;9.26;100.00;100315.00;5020988;28;20325;-80
2022/11/05 00:16:42;;;;;;;18.48;5.20;;;9.20;99.90;;;9.32;100.00;100309.81;5004667;28;20258;-80
2022/11/05 00:19:05;;;;;;;13.25;3.67;;;9.30;99.90;;;9.34;100.00;100321.25;5020691;28;20231;-81
2022/11/05 00:27:08;;;;;;;16.20;4.40;;;9.20;99.90;;;9.32;100.00;100333.56;5019832;28;20322;-80
2022/11/05 00:29:35;;;;;;;16.27;4.47;;;9.20;99.90;;;9.28;100.00;100330.00;5021492;28;20318;-81
2022/11/05 00:32:03;;;;;;;14.50;4.13;;;9.20;99.90;;;9.29;100.00;100338.78;5020833;28;20302;-80
2022/11/05 00:34:30;;;;;;;13.05;3.63;;;9.20;99.90;;;9.25;100.00;100345.78;5019382;28;20227;-78
2022/11/05 00:36:57;;;;;;;12.77;3.60;;;9.20;99.90;;;9.24;100.00;100349.28;5019971;28;20242;-80
2022/11/05 00:39:24;;;;;;;15.32;4.18;;;9.20;99.90;;;9.24;100.00;100349.28;5001774;28;20299;-81
2022/11/05 00:50:10;;;;;;;14.95;4.25;;;9.10;99.90;;;9.19;100.00;100366.81;5023568;28;20676;-80
2022/11/05 00:52:58;;;;;;;16.52;4.28;;;9.10;99.90;;;9.27;100.00;100366.91;5025027;28;20230;-80
2022/11/05 00:55:36;;;;;;;18.10;4.75;;;9.30;99.90;;;9.25;100.00;100366.00;5024715;28;20237;-80
2022/11/05 00:58:13;;;;;;;14.57;3.90;;;9.20;99.90;;;9.24;100.00;100367.75;5024867;28;20304;-80
2022/11/05 01:00:44;;;;;;;14.52;4.03;;;9.20;99.90;;;9.22;100.00;100373.88;5025729;28;20227;-81
2022/11/05 01:03:13;;;;;;;16.10;4.25;;;9.20;99.90;;;9.20;100.00;100368.59;5024850;28;20314;-80
2022/11/05 01:05:46;;;;;;;18.48;4.95;;;9.20;99.90;;;9.26;100.00;100370.41;5023334;28;20246;-80
2022/11/05 01:08:16;;;;;;;16.48;4.57;;;9.20;99.90;;;9.22;100.00;100373.88;5026364;28;20318;-82
2022/11/05 01:10:47;;;;;;;15.70;4.50;;;9.20;99.90;;;9.21;100.00;100367.72;5023040;28;20305;-81
2022/11/05 01:13:18;;;;;;;20.73;5.70;;;9.20;99.90;;;9.22;100.00;100373.88;5025805;28;20322;-80
2022/11/05 01:15:46;;;;;;;17.35;4.50;;;9.20;99.90;;;9.28;100.00;100369.56;5025111;28;20318;-81
2022/11/05 01:18:13;;;;;;;16.48;4.47;;;9.20;99.90;;;9.27;100.00;100366.91;5025572;28;20298;-82
2022/11/05 01:20:40;;;;;;;16.08;4.50;;;9.20;99.90;;;9.28;100.00;100360.78;5026021;28;20318;-80
2022/11/05 01:23:08;;;;;;;12.38;3.40;;;9.30;99.90;;;9.27;100.00;100362.53;5028784;28;20237;-81
2022/11/05 01:25:41;;;;;;;13.25;3.58;;;9.20;99.90;;;9.30;100.00;100359.91;5021224;28;20231;-80
2022/11/05 01:28:08;;;;;;;9.18;2.63;;;9.30;99.90;;;9.27;100.00;100359.88;5015177;28;20235;-79
2022/11/05 01:30:36;;;;;;;18.00;4.70;;;9.20;99.90;;;9.28;100.00;100363.41;5005003;28;20227;-78
2022/11/05 01:33:03;;;;;;;14.93;3.95;;;9.30;99.90;;;9.29;100.00;100363.44;5023340;28;20628;-81
2022/11/05 01:35:30;;;;;;;14.77;3.90;;;9.30;99.90;;;9.32;100.00;100366.97;5004742;28;20301;-80
2022/11/05 01:37:57;;;;;;;14.57;3.88;;;9.30;99.90;;;9.29;100.00;100366.06;5024855;28;20669;-81
2022/11/05 01:40:25;;;;;;;18.83;5.10;;;9.30;99.90;;;9.30;100.00;100369.59;5005223;28;20283;-80
2022/11/05 01:42:52;;;;;;;18.13;4.85;;;9.30;99.90;;;9.31;100.00;100371.38;5025874;28;20310;-79
2022/11/05 01:45:26;;;;;;;18.42;4.68;;;9.30;99.90;;;9.34;100.00;100373.16;5024529;28;20324;-80
2022/11/05 01:47:57;;;;;;;19.95;5.40;;;9.30;99.90;;;9.33;100.00;100369.63;5024859;28;20226;-80
2022/11/05 01:50:56;;;;;;;18.40;5.00;;;9.30;99.90;;;9.33;100.00;100369.63;5005350;28;20314;-81
2022/11/05 01:53:32;;;;;;;17.25;4.53;;;9.30;99.90;;;9.33;100.00;100372.28;5025626;28;20253;-79
2022/11/05 01:56:13;;;;;;;15.18;4.35;;;9.30;99.90;;;9.31;100.00;100381.91;5023616;28;20296;-80
2022/11/05 01:58:57;;;;;;;14.65;4.00;;;9.30;99.90;;;9.28;100.00;100374.84;5005192;28;20231;-78
2022/11/05 02:01:24;;;;;;;20.20;5.47;;;9.20;99.90;;;9.28;100.00;100381.88;5005212;28;20226;-80
2022/11/05 02:03:57;;;;;;;15.35;4.10;;;9.30;99.90;;;9.25;100.00;100374.81;5005017;28;20235;-80
2022/11/05 02:06:26;;;;;;;16.25;4.35;;;9.30;99.90;;;9.25;100.00;100380.09;4990469;28;20843;-80
2022/11/05 02:09:08;;;;;;;19.33;5.10;;;9.20;99.90;;;9.26;100.00;100381.84;5006823;28;20269;-81
2022/11/05 02:11:35;;;;;;;16.75;4.38;;;9.20;99.90;;;9.22;100.00;100384.44;5006012;28;20231;-80
2022/11/05 02:14:03;;;;;;;15.02;4.05;;;9.20;99.90;;;9.22;100.00;100390.59;5024494;28;20341;-81
2022/11/05 02:17:15;;;;;;;14.15;3.88;;;9.10;99.90;;;9.20;100.00;100391.44;5025120;28;20270;-79
2022/11/05 02:20:15;;;;;;;18.80;5.05;;;9.10;99.90;;;9.17;100.00;100394.94;4997029;28;20357;-81
2022/11/05 02:23:23;;;;;;;18.38;4.97;;;9.10;99.90;;;9.17;100.00;100392.28;4989993;28;20292;-80
2022/11/05 02:26:12;;;;;;;13.55;3.65;;;9.10;99.90;;;9.17;100.00;100389.66;4985748;28;20265;-81
2022/11/05 02:29:04;;;;;;;16.02;4.22;;;9.10;99.90;;;9.19;100.00;100406.38;5030812;28;20226;-79
2022/11/05 02:31:42;;;;;;;19.42;5.10;;;9.20;99.90;;;9.16;100.00;100405.47;5033675;28;20783;-81
2022/11/05 02:34:31;;;;;;;15.00;3.97;;;9.10;99.90;;;9.16;100.00;100406.34;5038089;28;20230;-78
2022/11/05 02:37:25;;;;;;;16.50;4.35;;;9.20;99.90;;;9.15;100.00;100404.56;4994684;28;20231;-79
2022/11/05 02:40:31;;;;;;;19.00;5.13;;;9.10;99.90;;;9.17;100.00;100420.44;5037386;28;20258;-81
2022/11/05 02:43:29;;;;;;;15.68;4.30;;;9.10;99.90;;;9.20;100.00;100410.81;4997950;28;20284;-80
2022/11/05 02:46:25;;;;;;;12.43;3.40;;;9.10;99.90;;;9.18;100.00;100415.16;5027539;28;20273;-80
2022/11/05 02:49:12;;;;;;;17.08;4.40;;;9.10;99.90;;;9.13;100.00;100408.94;5023994;28;20234;-78
2022/11/05 02:51:51;;;;;;;21.27;5.53;;;9.10;99.90;;;9.13;100.00;100415.97;5018952;28;20281;-79
2022/11/05 02:54:43;;;;;;;19.05;5.05;;;9.10;99.90;;;9.18;100.00;100425.72;5005284;28;20254;-80
2022/11/05 02:57:10;;;;;;;16.95;4.57;;;9.10;99.90;;;9.19;100.00;100427.50;5003874;28;20342;-80
2022/11/05 02:59:37;;;;;;;16.52;4.43;;;9.10;99.90;;;9.14;100.00;100416.00;5003512;28;20227;-80
2022/11/05 03:02:05;;;;;;;17.40;4.47;;;9.10;99.90;;;9.13;100.00;100429.16;5024902;28;20235;-80
2022/11/05 03:04:32;;;;;;;17.55;4.78;;;9.10;99.90;;;9.12;100.00;100433.53;5004425;28;20250;-79
2022/11/05 03:07:45;;;;;;;15.50;4.18;;;9.10;99.90;;;9.14;100.00;100430.94;5003370;28;20270;-80
2022/11/05 03:10:33;;;;;;;14.93;4.07;;;9.10;99.90;;;9.10;100.00;100432.63;4988998;28;20671;-79
2022/11/05 03:13:12;;;;;;;17.55;4.50;;;9.10;99.90;;;9.11;100.00;100433.53;5021783;28;20258;-81
2022/11/05 03:16:10;;;;;;;16.35;4.30;;;9.10;99.90;;;9.09;100.00;100433.47;5021615;28;20731;-79
2022/11/05 03:19:00;;;;;;;16.65;4.32;;;9.10;99.90;;;9.09;100.00;100430.84;5003641;28;20338;-80
2022/11/05 03:21:40;;;;;;;15.88;4.15;;;9.10;99.90;;;9.11;100.00;100430.88;4984646;28;20258;-80
2022/11/05 03:24:22;;;;;;;18.48;4.80;;;9.00;99.90;;;9.09;100.00;100430.84;5021021;28;20235;-80
2022/11/05 03:26:54;;;;;;;20.25;5.32;;;9.10;99.90;;;9.08;100.00;100428.16;5002772;28;20238;-80
2022/11/05 03:29:32;;;;;;;17.65;4.70;;;9.10;99.90;;;9.05;100.00;100429.00;5003425;28;20295;-80
2022/11/05 03:32:02;;;;;;;16.42;4.30;;;9.00;99.90;;;9.02;100.00;100434.25;5002820;28;20318;-79
2022/11/05 03:34:35;;;;;;;20.17;5.47;;;9.00;99.90;;;8.99;100.00;100436.84;5002400;28;20322;-80
2022/11/05 03:37:05;;;;;;;17.08;4.53;;;9.00;99.90;;;8.98;100.00;100432.41;4998021;28;20318;-79
2022/11/05 03:39:43;;;;;;;14.43;3.97;;;9.00;99.90;;;8.96;100.00;100434.16;5004183;28;20397;-80
2022/11/05 03:42:16;;;;;;;17.20;4.63;;;9.00;99.90;;;8.97;100.00;100439.44;5006548;28;20656;-80
2022/11/05 03:44:49;;;;;;;10.20;2.88;;;8.90;99.90;;;8.94;100.00;100441.16;5022686;28;20228;-80
2022/11/05 03:47:22;;;;;;;14.82;4.00;;;8.90;99.90;;;8.94;100.00;100439.41;5006512;28;20231;-80
2022/11/05 03:50:39;;;;;;;18.38;4.95;;;8.90;99.90;;;8.96;100.00;100453.50;5002587;28;20219;-81
2022/11/05 03:53:22;;;;;;;14.80;3.88;;;8.90;99.90;;;8.92;100.00;100446.41;5005772;28;20287;-80
2022/11/05 03:56:15;;;;;;;14.68;3.95;;;8.90;99.90;;;8.94;100.00;100444.69;5002157;28;20250;-81
2022/11/05 03:58:44;;;;;;;17.02;4.45;;;8.90;99.90;;;8.95;100.00;100445.56;5001283;28;20227;-80
2022/11/05 04:01:11;;;;;;;15.45;4.18;;;8.90;99.90;;;8.95;100.00;100443.81;5001264;28;20314;-80
2022/11/05 04:03:38;;;;;;;15.20;3.97;;;8.90;99.90;;;8.92;100.00;100448.16;5003770;28;20290;-80
2022/11/05 04:14:26;;;;;;;13.77;3.63;;;8.80;99.90;;;8.81;100.00;100447.09;5020195;28;20317;-81
2022/11/05 04:17:05;;;;;;;13.30;3.55;;;8.80;99.90;;;8.76;100.00;100447.00;5005504;28;20254;-80
2022/11/05 04:25:07;;;;;;;16.15;4.38;;;8.70;99.90;;;8.74;100.00;100458.41;5022527;28;20321;-81
2022/11/05 04:27:35;;;;;;;14.75;3.95;;;8.70;99.90;;;8.71;100.00;100460.97;5026730;28;20261;-80
2022/11/05 04:30:19;;;;;;;16.42;4.32;;;8.70;99.90;;;8.72;100.00;100457.50;5030620;28;20314;-80
2022/11/05 04:33:14;;;;;;;14.07;3.88;;;8.70;99.90;;;8.72;100.00;100465.41;5028512;28;20227;-80
2022/11/05 04:35:47;;;;;;;11.55;3.10;;;8.70;99.90;;;8.68;100.00;100463.56;5013463;28;20236;-80
2022/11/05 04:38:18;;;;;;;15.57;4.13;;;8.70;99.90;;;8.68;100.00;100460.94;5030963;28;20238;-81
2022/11/05 04:40:47;;;;;;;14.05;3.70;;;8.60;99.90;;;8.72;100.00;100463.66;5021453;28;20223;-81
2022/11/05 04:43:17;;;;;;;11.55;3.13;;;8.70;99.90;;;8.70;100.00;100459.22;5042472;28;20276;-80
2022/11/05 04:45:45;;;;;;;13.18;3.40;;;8.70;99.90;;;8.69;100.00;100460.97;5035647;28;20226;-81
2022/11/05 04:48:12;;;;;;;10.48;2.83;;;8.70;99.90;;;8.67;100.00;100465.31;5020637;28;20242;-81
2022/11/05 04:50:39;;;;;;;13.02;3.50;;;8.60;99.90;;;8.70;100.00;100469.75;5040401;28;20306;-81
2022/11/05 04:53:06;;;;;;;12.30;3.40;;;8.70;99.90;;;8.71;100.00;100469.78;5036395;28;20258;-81
2022/11/05 04:55:33;;;;;;;10.27;2.75;;;8.70;99.90;;;8.71;100.00;100469.78;5031280;28;20284;-79
2022/11/05 04:58:00;;;;;;;10.82;2.97;;;8.70;99.90;;;8.70;100.00;100470.66;5035602;28;20759;-81
2022/11/05 05:00:27;;;;;;;12.70;3.42;;;8.70;99.90;;;8.66;100.00;100467.06;5031491;28;20235;-81
2022/11/05 05:02:55;;;;;;;14.10;3.95;;;8.60;99.90;;;8.70;100.00;100475.91;5020644;28;20317;-80
2022/11/05 05:05:22;;;;;;;16.10;4.38;;;8.60;99.90;;;8.70;100.00;100486.47;5034916;28;20258;-80
2022/11/05 05:07:49;;;;;;;12.13;3.22;;;8.60;99.90;;;8.69;100.00;100491.72;5037034;28;20259;-81
2022/11/05 05:10:16;;;;;;;14.45;3.72;;;8.60;99.90;;;8.60;100.00;100484.53;5025643;28;20258;-80
2022/11/05 05:12:43;;;;;;;14.73;3.90;;;8.60;99.90;;;8.58;100.00;100492.41;5036560;28;20266;-81
2022/11/05 05:15:10;;;;;;;17.38;5.03;;;8.60;99.90;;;8.56;100.00;100496.75;5033297;28;20251;-80
2022/11/05 05:17:37;;;;;;;11.82;3.20;;;8.50;99.90;;;8.57;100.00;100505.56;5032025;28;20322;-80
2022/11/05 05:22:54;;;;;;;13.38;3.65;;;8.50;99.90;;;8.50;100.00;100517.75;5024546;28;20300;-79
2022/11/05 05:25:22;;;;;;;14.80;3.90;;;8.50;99.90;;;8.47;100.00;100517.69;5030239;28;20269;-81
2022/11/05 05:27:49;;;;;;;13.90;3.85;;;8.50;99.90;;;8.38;100.00;100520.13;5026869;28;20251;-81
2022/11/05 05:30:16;;;;;;;14.15;3.85;;;8.40;99.90;;;8.37;100.00;100518.38;5016985;28;20309;-81
2022/11/05 05:32:43;;;;;;;14.05;3.95;;;8.30;99.90;;;8.30;100.00;100514.69;5028927;28;20259;-80
2022/11/05 05:35:10;;;;;;;14.38;4.00;;;8.30;99.90;;;8.31;100.00;100523.47;5021275;28;20255;-81
2022/11/05 05:37:40;;;;;;;13.00;3.67;;;8.30;99.90;;;8.39;100.00;100526.31;5026375;28;20290;-79
2022/11/05 05:40:10;;;;;;;15.05;3.92;;;8.40;99.90;;;8.36;100.00;100523.59;5015284;28;20227;-81
2022/11/05 05:42:37;;;;;;;12.38;3.17;;;8.30;99.90;;;8.31;100.00;100537.56;5012385;28;20365;-81
2022/11/05 05:45:10;;;;;;;18.83;4.80;;;8.30;99.90;;;8.34;100.00;100542.91;5039264;28;20300;-80
2022/11/05 05:47:37;;;;;;;13.27;3.55;;;8.30;99.90;;;8.36;100.00;100544.69;5038261;28;20293;-81
2022/11/05 05:50:05;;;;;;;11.55;3.08;;;8.30;99.90;;;8.28;100.00;100537.50;5035292;28;20246;-78
2022/11/05 05:52:32;;;;;;;14.20;3.88;;;8.30;99.90;;;8.32;100.00;100554.25;5035338;28;20223;-80
2022/11/05 05:54:58;;;;;;;14.52;3.78;;;8.30;99.90;;;8.27;100.00;100548.88;5025816;28;20251;-80
2022/11/05 05:57:25;;;;;;;13.60;3.75;;;8.30;99.90;;;8.31;100.00;100556.00;5029696;28;20250;-80
2022/11/05 05:59:53;;;;;;;13.18;3.33;;;8.30;99.90;;;8.31;100.00;100560.38;5032348;28;20231;-80
2022/11/05 06:02:20;;;;;;;13.50;3.55;;;8.30;99.90;;;8.29;100.00;100570.00;5036860;28;20219;-81
2022/11/05 06:04:47;;;;;;;13.40;3.63;;;8.30;99.90;;;8.28;100.00;100562.94;5036752;28;20231;-79
2022/11/05 06:07:14;;;;;;;13.52;3.63;;;8.30;99.90;;;8.33;100.00;100571.88;5015715;28;20257;-80
2022/11/05 06:09:41;;;;;;;15.88;4.18;;;8.30;99.90;;;8.27;100.00;100571.72;5017852;28;20407;-79
2022/11/05 06:12:08;;;;;;;12.32;3.22;;;8.30;99.90;;;8.28;100.00;100573.50;5042207;28;20238;-80
2022/11/05 06:14:36;;;;;;;11.52;3.15;;;8.30;99.90;;;8.31;100.00;100573.53;5038047;28;20254;-79
2022/11/05 06:17:03;;;;;;;10.18;3.13;;;8.30;99.90;;;8.27;100.00;100582.25;5025722;28;20235;-81
2022/11/05 06:19:30;;;;;;;13.65;3.53;;;8.30;99.90;;;8.31;100.00;100579.72;5028308;28;20314;-80
2022/11/05 06:21:57;;;;;;;13.48;3.63;;;8.30;99.90;;;8.28;100.00;100584.03;5037671;28;20341;-80
2022/11/05 06:24:24;;;;;;;13.10;3.40;;;8.30;99.90;;;8.34;100.00;100597.34;5002678;28;20306;-80
2022/11/05 06:26:51;;;;;;;15.32;4.07;;;8.30;99.90;;;8.37;100.00;100599.16;5029495;28;20330;-80
2022/11/05 06:29:18;;;;;;;15.13;3.88;;;8.30;99.90;;;8.35;100.00;100599.13;5039449;28;20234;-81
2022/11/05 06:31:46;;;;;;;13.75;3.80;;;8.30;99.90;;;8.31;100.00;100600.78;5033260;28;20330;-79
2022/11/05 06:34:13;;;;;;;11.38;3.08;;;8.30;99.90;;;8.38;100.00;100601.84;5005431;28;20330;-80
2022/11/05 06:36:40;;;;;;;17.92;4.70;;;8.30;99.90;;;8.32;100.00;100602.56;5030949;28;20257;-79
2022/11/05 06:39:13;;;;;;;11.52;3.10;;;8.30;99.90;;;8.31;100.00;100595.50;5028028;28;20254;-81
2022/11/05 06:41:40;;;;;;;17.42;4.55;;;8.30;99.90;;;8.33;100.00;100593.84;5030456;28;20254;-78
2022/11/05 06:44:27;;;;;;;12.40;3.30;;;8.30;99.90;;;8.37;100.00;100592.16;5031950;28;20253;-80
2022/11/05 06:46:54;;;;;;;12.18;3.40;;;8.40;99.90;;;8.39;100.00;100589.53;5043731;28;20226;-79
2022/11/05 06:49:24;;;;;;;12.15;3.30;;;8.40;99.90;;;8.38;100.00;100596.56;5034224;28;20223;-80
2022/11/05 06:51:52;;;;;;;13.93;3.53;;;8.40;99.90;;;8.40;100.00;100596.59;5020325;28;20250;-81
2022/11/05 06:54:19;;;;;;;15.88;4.22;;;8.40;99.90;;;8.42;100.00;100597.50;5025824;28;20318;-77
2022/11/05 06:56:49;;;;;;;16.20;4.20;;;8.10;99.90;;;8.39;100.00;100593.06;5007585;28;20231;-79
2022/11/05 06:59:15;;;;;;;10.43;2.83;;;8.40;99.90;;;8.40;100.00;100605.38;5010215;28;20255;-77
2022/11/05 07:01:42;;;;;;;11.70;3.15;;;8.40;99.90;;;8.44;100.00;100604.59;5026161;28;20223;-76
2022/11/05 07:04:11;;;;;;;12.27;3.30;;;8.40;99.90;;;8.42;100.00;100619.47;5023442;28;20266;-78
2022/11/05 07:06:38;;;;;;;17.02;4.35;;;8.40;99.90;;;8.43;100.00;100610.72;5026413;28;20243;-79
2022/11/05 07:09:08;;;;;;;11.25;3.05;;;8.40;99.90;;;8.46;100.00;100621.31;5038789;28;20265;-78
2022/11/05 07:11:35;;;;;;;14.88;3.90;;;8.40;99.90;;;8.48;100.00;100627.53;5029898;28;20273;-78
2022/11/05 07:14:02;;;;;;;11.63;3.25;;;8.50;99.90;;;8.47;100.00;100625.75;5031936;28;20230;-81
2022/11/05 07:16:29;;;;;;;16.42;4.25;;;8.50;99.90;;;8.49;100.00;100631.94;5024577;28;20258;-78
2022/11/05 07:18:56;;;;;;;12.35;3.17;;;8.50;99.90;;;8.55;100.00;100639.97;5025528;28;20243;-80
2022/11/05 07:21:23;;;;;;;22.70;5.55;;;8.50;99.90;;;8.54;100.00;100632.91;5021515;28;20239;-80
2022/11/05 07:23:50;;;;;;;22.75;5.55;;;8.50;99.90;;;8.56;100.00;100644.38;5021992;28;20246;-78
2022/11/05 07:26:17;;;;;;;15.43;3.90;;;8.50;99.90;;;8.54;100.00;100651.38;5027149;28;20242;-79
2022/11/05 07:28:44;;;;;;;17.27;4.10;;;8.50;99.90;;;8.61;100.00;100670.84;5028828;28;20227;-80
2022/11/05 07:31:11;;;;;;;15.90;3.88;;;8.60;99.90;;;8.61;100.00;100663.81;5025605;28;20227;-80
2022/11/05 07:33:38;;;;;;;19.80;4.95;;;8.60;99.90;;;8.65;100.00;100667.41;5037143;28;20285;-79
2022/11/05 07:36:06;;;;;;;12.98;3.33;;;8.60;99.90;;;8.64;100.00;100673.53;5014082;28;20288;-78
2022/11/05 07:38:33;;;;;;;14.02;3.50;;;8.60;99.90;;;8.66;100.00;100670.06;5029812;28;20327;-78
2022/11/05 07:41:00;;;;;;;18.58;5.78;;;8.60;99.90;;;8.70;100.00;100684.22;5029314;28;20231;-78
2022/11/05 07:43:27;;;;;;;18.42;4.55;;;8.60;99.90;;;8.60;100.00;100669.94;5021072;28;20258;-78
2022/11/05 07:45:54;;;;;;;15.30;3.80;;;8.60;99.90;;;8.63;100.00;100675.28;5033423;28;20292;-78
2022/11/05 07:48:21;;;;;;;17.10;4.05;;;8.60;99.90;;;8.63;100.00;100677.03;5027714;28;20219;-80
2022/11/05 07:50:52;;;;;;;19.15;4.53;;;8.60;99.90;;;8.66;100.00;100679.72;5029215;28;20285;-80
2022/11/05 07:53:20;;;;;;;17.10;4.10;;;8.60;99.90;;;8.67;100.00;100681.50;5028061;28;20254;-80
2022/11/05 07:55:47;;;;;;;15.40;3.65;;;8.60;99.90;;;8.70;100.00;100689.47;5025916;28;20659;-80
2022/11/05 07:58:14;;;;;;;17.38;4.07;;;8.60;99.90;;;8.72;100.00;100703.59;5021923;28;20231;-80
2022/11/05 08:00:41;;;;;;;15.73;3.90;;;8.60;99.90;;;8.70;100.00;100702.66;5029886;28;20377;-79
2022/11/05 08:03:14;;;;;;;14.35;3.63;;;8.70;99.90;;;8.80;100.00;100711.66;5028243;28;20223;-79
2022/11/05 08:05:45;;;;;;;19.88;4.60;;;8.70;99.90;;;8.79;100.00;100715.16;5011475;28;20238;-79
2022/11/05 08:08:16;;;;;;;15.55;3.67;;;8.80;99.90;;;8.90;100.00;100737.34;5031572;28;20230;-79
2022/11/05 08:10:43;;;;;;;13.50;3.30;;;8.80;99.90;;;8.89;100.00;100733.81;5043526;28;20279;-79
2022/11/05 08:13:11;;;;;;;14.18;3.55;;;8.80;99.90;;;8.85;100.00;100733.72;5030009;28;20225;-79
2022/11/05 08:15:39;;;;;;;13.23;3.40;;;8.80;99.90;;;8.98;100.00;100751.59;5027499;28;20242;-80
2022/11/05 08:18:14;;;;;;;14.90;3.75;;;8.90;99.90;;;9.11;100.00;100766.84;5034104;28;20254;-81
2022/11/05 08:20:43;;;;;;;15.32;3.75;;;9.00;99.90;;;9.19;100.00;100770.53;5034326;28;20235;-80
2022/11/05 08:23:11;;;;;;;13.43;3.42;;;9.10;99.90;;;9.20;100.00;100767.03;5029549;28;20235;-80
2022/11/05 08:25:39;;;;;;;14.50;3.75;;;9.10;99.90;;;9.27;100.00;100758.38;5030886;28;20247;-80
2022/11/05 08:28:10;;;;;;;11.75;2.95;;;9.20;99.90;;;9.28;100.00;100749.59;5038439;28;20262;-82
2022/11/05 08:30:38;;;;;;;17.48;4.43;;;9.20;99.90;;;9.35;100.00;100741.78;5022400;28;20230;-81
2022/11/05 08:33:09;;;;;;;15.07;3.80;;;9.30;99.90;;;9.39;100.00;100751.53;5015552;28;20239;-79
2022/11/05 08:35:38;;;;;;;12.20;3.15;;;9.30;99.90;;;9.45;100.00;100751.66;5037247;28;20234;-80
2022/11/05 08:38:07;;;;;;;13.43;3.38;;;9.40;99.90;;;9.59;100.00;100766.00;5033990;28;20230;-80
2022/11/05 08:40:35;;;;;;;14.02;3.50;;;9.50;99.90;;;9.54;100.00;100749.19;5054863;28;20231;-80
2022/11/05 08:43:05;;;;;;;13.00;3.33;;;9.50;99.90;;;9.62;100.00;100744.94;5044740;28;20295;-80
2022/11/05 08:45:35;;;;;;;12.85;3.25;;;9.50;99.90;;;9.77;100.00;100768.06;5041028;28;20246;-80
2022/11/05 08:48:07;;;;;;;15.60;3.92;;;9.60;99.90;;;9.77;100.00;100761.03;5012137;28;20235;-80
2022/11/05 08:50:36;;;;;;;12.30;3.13;;;9.70;99.90;;;9.77;100.00;100753.13;5035408;28;20285;-80
2022/11/05 08:53:04;;;;;;;15.45;3.90;;;9.70;99.90;;;9.72;100.00;100736.31;5035300;28;20241;-80
2022/11/05 08:55:31;;;;;;;10.10;2.65;;;9.70;99.90;;;9.87;100.00;100756.81;5029654;28;20300;-80
2022/11/05 08:58:05;;;;;;;21.17;5.28;;;9.80;99.90;;;9.99;100.00;100764.94;5029789;28;20243;-80
2022/11/05 09:00:34;;;;;;;18.42;4.57;;;9.90;99.90;;;10.01;100.00;100757.91;5031199;28;20338;-80
2022/11/05 09:03:05;;;;;;;14.52;3.85;;;9.90;99.90;;;9.98;100.00;100763.16;5038521;28;20282;-80
2022/11/05 09:05:38;;;;;;;13.35;3.42;;;9.90;99.90;;;9.94;100.00;100762.22;5035487;28;20242;-81
2022/11/05 09:08:15;;;;;;;12.93;3.60;;;9.90;99.90;;;9.96;100.00;100762.25;5031212;28;20257;-79
2022/11/05 09:10:43;;;;;;;12.88;3.47;;;9.90;99.90;;;9.97;100.00;100765.78;5007299;28;20232;-81
2022/11/05 09:13:11;;;;;;;14.40;3.85;;;9.90;99.90;;;10.04;100.00;100780.88;5022243;28;20230;-81
2022/11/05 09:15:49;;;;;;;18.77;4.82;;;9.90;99.90;;;10.01;100.00;100771.13;5034640;28;20234;-79
2022/11/05 09:18:18;;;;;;;19.92;5.22;;;9.90;99.90;;;10.13;100.00;100776.63;5032963;28;20323;-80
2022/11/05 09:20:45;;;;;;;14.27;3.90;;;10.10;99.90;;;10.12;100.00;100768.66;5023838;28;20285;-80
2022/11/05 09:23:15;;;;;;;16.08;4.20;;;10.00;99.90;;;10.25;100.00;100778.59;5023938;28;20334;-79
2022/11/05 09:25:43;;;;;;;13.63;3.60;;;10.10;99.90;;;10.42;100.00;100803.56;5033234;28;20251;-78
2022/11/05 09:28:21;;;;;;;12.35;3.20;;;10.30;99.90;;;10.43;100.00;100785.97;5042256;28;20254;-78
2022/11/05 09:30:51;;;;;;;18.45;4.85;;;10.30;99.90;;;10.52;100.00;100784.34;5042131;28;20253;-79
2022/11/05 09:33:22;;;;;;;13.27;3.30;;;10.40;99.90;;;10.61;100.00;100783.59;5024112;28;20286;-79
2022/11/05 09:35:50;;;;;;;14.02;3.60;;;10.50;99.90;;;10.61;100.00;100782.69;5032514;28;20231;-79
2022/11/05 09:38:18;;;;;;;14.63;3.80;;;10.50;99.90;;;10.35;100.00;100735.56;5015790;28;20231;-79
2022/11/05 09:41:00;;;;;;;13.02;3.30;;;10.40;99.90;;;10.32;100.00;100732.88;5036479;28;20270;-79
2022/11/05 09:43:48;;;;;;;11.50;3.13;;;10.30;99.90;;;10.29;100.00;100727.56;5040493;28;20226;-79
2022/11/05 09:46:25;;;;;;;12.25;3.30;;;10.20;99.90;;;10.28;100.00;100744.28;5028872;28;20256;-78
2022/11/05 09:49:01;;;;;;;11.70;3.05;;;10.20;99.90;;;10.47;100.00;100764.88;5000880;28;20231;-78
2022/11/05 09:51:29;;;;;;;9.80;2.65;;;10.30;99.90;;;10.62;100.00;100768.59;5015457;28;20289;-79
2022/11/05 09:54:00;;;;;;;12.48;3.40;;;10.50;99.90;;;10.54;100.00;100761.44;5038017;28;20297;-79
2022/11/05 09:56:33;;;;;;;10.40;3.00;;;10.50;99.90;;;10.69;100.00;100783.69;4996917;28;20289;-80
2022/11/05 09:59:21;;;;;;;13.07;3.50;;;10.50;99.90;;;10.79;100.00;100809.41;5015045;28;20734;-79
2022/11/05 10:01:51;;;;;;;16.45;4.47;;;10.60;99.90;;;10.75;100.00;100787.31;5015171;28;20265;-79
2022/11/05 10:04:25;;;;;;;10.85;2.95;;;10.70;99.90;;;10.80;100.00;100804.13;5000867;28;20300;-78
2022/11/05 10:07:01;;;;;;;14.30;3.80;;;10.70;99.90;;;10.92;100.00;100819.28;5014620;28;20322;-79
2022/11/05 10:09:44;;;;;;;13.95;3.78;;;10.80;99.90;;;10.95;100.00;100805.22;5004706;28;20328;-80
2022/11/05 10:12:17;;;;;;;9.40;2.65;;;10.80;99.90;;;11.07;100.00;100816.84;5015108;28;20226;-80
2022/11/05 10:14:53;;;;;;;18.00;5.03;;;10.90;99.90;;;11.07;100.00;100813.31;5037873;28;20231;-79
2022/11/05 10:17:26;;;;;;;14.52;3.92;;;11.00;99.90;;;10.96;100.00;100793.75;5012527;28;20256;-78
2022/11/05 10:20:14;;;;;;;15.57;4.25;;;10.90;99.90;;;10.87;100.00;100786.59;5011988;28;20273;-79
2022/11/05 10:22:41;;;;;;;16.48;4.45;;;10.70;99.90;;;11.03;100.00;100817.69;5031104;28;20231;-80
2022/11/05 10:25:20;;;;;;;26.48;6.90;;;11.00;99.90;;;11.34;100.00;100844.53;5020988;28;20239;-79
2022/11/05 10:27:54;;;;;;;17.63;4.80;;;11.10;99.90;;;11.37;100.00;100842.81;5021117;28;20250;-79
2022/11/05 10:30:21;;;;;;;15.85;4.20;;;11.20;99.90;;;11.18;100.00;100795.81;5008617;28;20326;-79
2022/11/05 10:32:55;;;;;;;12.35;3.45;;;11.10;99.90;;;11.29;100.00;100817.13;5022203;28;20233;-79
2022/11/05 10:35:25;;;;;;;23.40;6.38;;;11.20;99.90;;;11.35;100.00;100807.50;5003428;28;20235;-79
2022/11/05 10:37:53;;;;;;;15.35;4.25;;;11.20;99.90;;;11.51;100.00;100822.69;4999814;28;20273;-82
2022/11/05 10:40:34;;;;;;;17.83;4.63;;;11.30;99.90;;;11.49;100.00;100811.19;5008752;28;21014;-81
2022/11/05 10:43:09;;;;;;;16.20;4.32;;;11.40;99.90;;;11.24;100.00;100780.00;5022881;28;20231;-83
2022/11/05 10:46:28;;;;;;;14.65;4.07;;;11.20;99.90;;;11.32;100.00;100804.81;5006786;28;20298;-81
2022/11/05 10:49:42;;;;;;;13.35;3.70;;;11.30;99.90;;;11.28;100.00;100787.09;4978124;28;20255;-82
2022/11/05 10:52:35;;;;;;;13.10;3.75;;;11.20;99.90;;;11.16;100.00;100768.44;5019191;28;20346;-82
2022/11/05 10:55:46;;;;;;;18.35;5.07;;;11.10;99.90;;;11.04;100.00;100760.34;5003731;28;20231;-82
2022/11/05 10:58:16;;;;;;;24.05;6.55;;;11.00;99.90;;;11.39;100.00;100811.06;5019741;28;20231;-83
2022/11/05 11:00:51;;;;;;;19.50;5.25;;;11.10;99.90;;;11.49;100.00;100792.66;5020713;28;20781;-82
2022/11/05 11:04:03;;;;;;;14.25;4.00;;;11.30;99.90;;;11.37;100.00;100747.50;5023266;28;20227;-82
2022/11/05 11:06:38;;;;;;;11.30;3.10;;;11.40;99.90;;;11.95;100.00;100810.84;5008891;28;20683;-82
2022/11/05 11:09:26;;;;;;;13.80;3.88;;;11.60;99.90;;;12.07;100.00;100795.94;5014869;28;20282;-82
2022/11/05 11:12:03;;;;;;;16.60;4.75;;;11.80;99.90;;;12.16;100.00;100758.88;5007012;28;20328;-81
2022/11/05 11:14:31;;;;;;;11.50;3.33;;;12.00;99.90;;;11.86;99.78;100724.19;5035577;28;20286;-81
2022/11/05 11:17:25;;;;;;;11.45;3.25;;;11.80;99.90;;;11.95;97.42;100707.47;5040433;28;20243;-81
2022/11/05 11:20:33;;;;;;;11.70;3.22;;;11.80;99.90;;;12.34;99.23;100763.44;5031268;28;20249;-81